Peerless, Montana
Current Conditions -  °F | °C
As of 3:53 PM on Wednesday 17 Dec 2014 (Local Time) from KOLF Reporting Station
Overcast Overcast  
Wind Chill: 16°   Ceiling: 1600
Heat Index: 25°   Visibility: 10mi
Dew Point: 18°   Wind: 9mph
Humidity: 75%   Direction: 90°E
Pressure: 30.04"   Gusts: NA
Location:  48.79°N, 105.84°W
Report Text: KOLF 172253Z AUTO 09008KT 10SM OVC016 M04/M08 A3004 RMK AO2 SLP206 T10391078
Loading
Personal Weather Stations






























Interactive Weather Map New forecast layout! Learn more

10-Day Weather Forecast

Advertisements
Track Severe Weather on mobile